Impacts METAR Board
IDs:

KPDX - Portland Intl Arpt, OR, US

Updated at: 2100 UTC 21 Sep 2018
Potential Impact None Slight Moderate High
Time 21/09Z 21/10Z 21/11Z 21/12Z 21/13Z 21/14Z 21/15Z 21/16Z 21/17Z 21/18Z 21/19Z 21/20Z 21/21Z
Temp57 54 54 52 51 50 53 55 59 61 63 69 70
Dewpt51 50 50 48 48 48 51 50 51 52 51 51 50
Altim30.06 30.06 30.05 30.04 30.04 30.03 30.03 30.02 30.01 30.00 29.98 29.96 29.94
VIS10 10 10 10 10 10 10 10 10 10 10 10 10
CIG-- -- -- -- -- -- -- 250 250 210 200 250 200
CoverFEWFEWCLRCLRFEWFEWSCTBKNBKNBKNBKNBKNBKN
FltCatVFRVFRVFRVFRVFRVFRVFRVFRVFRVFRVFRVFRVFR
WX--------------------------
WDir00016025025000035031035060
WSpd0 0 0 4 3 4 0 0 0 4 5 4 5
WGst-- -- -- -- -- -- -- -- -- -- -- -- --
Raw hourly METARs
KPDX 210853Z 00000KT 10SM FEW250 14/11 A3006 RMK AO2 SLP179 T01390106 58010
KPDX 210953Z 00000KT 10SM FEW200 12/10 A3006 RMK AO2 SLP177 T01220100
KPDX 211053Z 00000KT 10SM CLR 12/10 A3005 RMK AO2 SLP174 T01220100
KPDX 211153Z 16004KT 10SM CLR 11/09 A3004 RMK AO2 SLP169 T01110089 10167 20111 58010
KPDX 211253Z 25003KT 10SM FEW010 FEW240 11/09 A3004 RMK AO2 SLP170 T01060089
KPDX 211353Z 25004KT 10SM FEW008 FEW250 10/09 A3003 RMK AO2 SLP168 T01000089
KPDX 211453Z 00000KT 10SM FEW010 SCT250 12/11 A3003 RMK AO2 SLP166 T01170106 58003
KPDX 211553Z 00000KT 10SM FEW100 BKN250 13/10 A3002 RMK AO2 SLP165 T01280100
KPDX 211653Z 00000KT 10SM FEW100 BKN250 15/11 A3001 RMK AO2 SLP162 T01500106
KPDX 211753Z 35004KT 10SM FEW120 BKN210 16/11 A3000 RMK AO2 SLP157 T01610111 10167 20100 58009
KPDX 211853Z 31005KT 10SM BKN200 17/11 A2998 RMK AO2 SLP152 T01720106
KPDX 211953Z 35004KT 10SM SCT200 BKN250 21/11 A2996 RMK AO2 SLP144 T02060106
KPDX 212053Z 06005KT 10SM BKN200 BKN300 21/10 A2994 RMK AO2 SLP138 T02110100 58019



Page loaded:  21:45 UTC  |   02:45 PM Pacific  |   03:45 PM Mountain  |   04:45 PM Central  |   05:45 PM Eastern

 

ADVISORIES

FORECASTS

FORECASTS

OBSERVATIONS

USER TOOLS

ABOUT US